Latest Weather Observations for Richmond

IDN60901

Issued at 1:31 pm EST Tuesday 22 August 2017 (issued every 10 minutes, with the page automatically refreshed every 10 minutes)

About weather observations | Map of Sydney area stations | Latest observations for Sydney area | Other Formats
Station Details ID: 067105 Name: RICHMOND RAAF Lat: -33.60 Lon: 150.78 Height: 19.0 m
Data from the previous 72 hours. | See also: Recent months at Richmond
Date/Time
EST
Temp
°C
App
Temp
°C
Dew
Point
°C
Rel
Hum
%
Delta-T
°C
Wind Press
QNH
hPa
Press
MSL
hPa
Rain since
9am
mm
Dir  Spd
km/h
Gust
km/h
Spd
kts
Gust
kts
22/01:30pm 18.5 15.4 1.5 32 7.6 E 7 13 4 7 1018.1 1018.1 0.0
22/01:00pm 18.6 15.7 4.8 40 6.6 ESE 9 13 5 7 1018.4 1018.4 0.0
22/12:30pm 17.9 15.7 5.2 43 6.1 SSW 6 13 3 7 1018.8 1018.8 0.0
22/12:00pm 17.2 14.7 4.5 43 6.0 NNW 7 13 4 7 1019.2 1019.2 0.0
22/11:30am 16.5 14.5 6.1 50 5.1 ENE 6 9 3 5 1019.8 1019.8 0.0
22/11:00am 15.5 13.4 6.0 53 4.6 ENE 6 11 3 6 1020.1 1020.1 0.0
22/10:30am 14.1 12.4 5.7 57 4.0 SSW 4 7 2 4 1020.2 1020.2 0.0
22/10:00am 13.7 12.4 6.1 60 3.6 NNE 2 7 1 4 1020.3 1020.3 0.0
22/09:30am 12.3 10.8 6.6 68 2.7 NNW 4 7 2 4 1020.3 1020.3 0.0
22/09:00am 11.1 9.6 7.0 76 1.9 NNE 4 7 2 4 1020.2 1020.2 0.0
22/08:30am 8.8 8.0 6.4 85 1.1 CALM 0 6 0 3 1020.3 1020.3 0.0
22/08:00am 7.3 6.1 6.6 95 0.3 N 2 6 1 3 1020.2 1020.2 0.0
22/07:30am 5.6 4.5 5.3 98 0.1 CALM 0 0 0 0 1019.6 1019.6 0.0
22/07:02am 4.3 3.0 4.0 98 0.1 CALM 0 0 0 0 1019.2 1019.2 0.0
22/07:00am 4.0 2.6 3.7 98 0.1 CALM 0 0 0 0 1019.3 1019.3 0.0
22/06:30am 3.5 2.0 3.2 98 0.1 CALM 0 0 0 0 1018.9 1018.9 0.0
22/06:22am 3.6 2.2 3.3 98 0.1 CALM 0 0 0 0 1018.8 1018.8 0.0
22/06:08am 3.6 2.2 3.3 98 0.1 CALM 0 6 0 3 1018.6 1018.6 0.0
22/06:00am 3.9 1.4 3.6 98 0.1 W 6 7 3 4 1018.5 1018.5 0.0
22/05:30am 4.3 3.0 4.0 98 0.1 CALM 0 0 0 0 1018.3 1018.3 0.0
22/05:00am 5.0 3.8 4.7 98 0.1 CALM 0 0 0 0 1018.2 1018.2 0.0
22/04:42am 4.8 3.6 4.5 98 0.1 CALM 0 0 0 0 1017.9 1017.9 0.0
22/04:30am 5.8 4.8 5.5 98 0.1 CALM 0 0 0 0 1017.7 1017.7 0.0
22/04:17am 5.4 4.3 5.1 98 0.1 CALM 0 0 0 0 1017.5 1017.5 0.0
22/04:00am 5.9 4.8 5.3 96 0.3 CALM 0 0 0 0 1017.4 1017.4 0.0
22/03:30am 7.7 7.1 7.4 98 0.1 CALM 0 0 0 0 1017.2 1017.2 0.0
22/03:00am 7.7 7.1 7.4 98 0.1 CALM 0 0 0 0 1017.1 1017.1 0.0
22/02:30am 7.8 7.2 7.2 96 0.3 CALM 0 0 0 0 1017.3 1017.3 0.0
22/02:00am 8.5 8.0 7.7 95 0.4 CALM 0 0 0 0 1017.4 1017.4 0.0
22/01:30am 8.7 8.1 7.6 93 0.5 CALM 0 0 0 0 1017.6 1017.6 0.0
22/01:00am 9.2 7.6 8.0 92 0.6 WSW 6 7 3 4 1018.0 1018.0 0.0
22/12:30am 9.6 7.9 8.4 92 0.6 W 7 9 4 5 1017.9 1017.9 0.0
22/12:00am 9.5 7.8 8.4 93 0.5 WNW 7 9 4 5 1018.0 1018.0 0.0
 
Date/Time
EST
Temp
°C
App
Temp
°C
Dew
Point
°C
Rel
Hum
%
Delta-T
°C
Wind Press
QNH
hPa
Press
MSL
hPa
Rain since
9am
mm
Dir  Spd
km/h
Gust
km/h
Spd
kts
Gust
kts
21/11:30pm 9.4 7.9 8.6 95 0.4 NW 6 7 3 4 1018.2 1018.2 0.0
21/11:00pm 9.6 9.3 8.5 93 0.5 CALM 0 0 0 0 1018.4 1018.4 0.0
21/10:30pm 9.6 8.9 8.4 92 0.6 W 2 7 1 4 1018.4 1018.4 0.0
21/10:00pm 10.2 9.9 8.6 90 0.8 CALM 0 0 0 0 1018.3 1018.3 0.0
21/09:30pm 10.1 9.7 8.2 88 0.9 CALM 0 0 0 0 1018.2 1018.2 0.0
21/09:00pm 10.4 10.0 8.3 87 1.0 CALM 0 0 0 0 1017.9 1017.9 0.0
21/08:30pm 10.8 10.4 8.4 85 1.2 CALM 0 0 0 0 1017.7 1017.7 0.0
21/08:00pm 10.6 10.2 8.4 86 1.1 CALM 0 0 0 0 1017.4 1017.4 0.0
21/07:30pm 10.6 9.0 7.8 83 1.4 SW 6 7 3 4 1017.1 1017.1 0.0
21/07:00pm 11.2 10.3 7.7 79 1.7 WSW 2 7 1 4 1016.8 1016.8 0.0
21/06:30pm 11.9 11.2 7.0 72 2.3 CALM 0 0 0 0 1016.6 1016.6 0.0
21/06:00pm 13.0 11.0 7.0 67 2.9 W 7 11 4 6 1016.2 1016.2 0.0
21/05:30pm 13.7 11.3 7.2 65 3.2 NNE 9 11 5 6 1015.9 1015.9 0.0
21/05:00pm 14.4 12.1 7.5 63 3.4 NNE 9 13 5 7 1015.6 1015.6 0.0
21/04:30pm 15.1 12.0 7.2 59 3.9 NNE 13 15 7 8 1015.5 1015.5 0.0
21/04:00pm 15.7 12.2 7.0 56 4.3 NNE 15 19 8 10 1015.4 1015.4 0.0
21/03:30pm 15.9 12.2 6.3 53 4.7 NNE 15 20 8 11 1015.3 1015.3 0.0
21/03:00pm 15.7 14.1 8.9 64 3.5 N 7 9 4 5 1015.3 1015.3 0.0
21/02:30pm 14.4 13.0 9.0 70 2.7 NNW 6 9 3 5 1015.8 1015.8 0.0
21/02:00pm 14.1 13.8 8.5 69 2.8 CALM 0 0 0 0 1015.9 1015.9 0.0
21/01:30pm 13.5 11.8 8.4 71 2.5 NNE 7 9 4 5 1016.5 1016.5 0.0
21/01:00pm 12.8 10.8 8.5 75 2.1 E 9 13 5 7 1016.9 1016.9 0.0
21/12:30pm 11.4 9.7 7.5 77 1.9 S 6 7 3 4 1017.9 1017.9 0.0
21/12:00pm 11.6 10.7 7.9 78 1.8 SE 2 7 1 4 1018.4 1018.4 0.0
21/11:30am 11.4 9.2 7.7 78 1.8 NE 9 11 5 6 1018.8 1018.8 0.0
21/11:00am 10.2 9.1 6.9 80 1.6 NNE 2 6 1 3 1019.3 1019.3 0.0
21/10:30am 9.9 7.8 6.8 81 1.5 NE 7 9 4 5 1019.5 1019.5 0.0
21/10:00am 9.3 8.6 7.1 86 1.0 CALM 0 2 0 1 1020.0 1020.0 0.0
21/09:30am 8.0 7.2 6.5 90 0.7 CALM 0 4 0 2 1020.2 1020.2 0.0
21/09:00am 7.8 7.0 6.7 93 0.5 CALM 0 0 0 0 1020.2 1020.2 0.0
21/08:30am 7.1 5.6 6.7 97 0.2 N 4 7 2 4 1020.3 1020.3 0.0
21/08:25am 7.0 5.9 6.7 98 0.1 N 2 7 1 4 1020.3 1020.3 0.0
21/08:14am 6.2 3.9 5.9 98 0.1 N 7 7 4 4 1020.5 1020.5 0.0
21/08:00am 5.4 3.0 5.1 98 0.1 NNE 7 9 4 5 1020.5 1020.5 0.0
21/07:30am 5.2 2.9 4.9 98 0.1 N 6 7 3 4 1020.2 1020.2 0.0
21/07:00am 4.4 2.3 4.1 98 0.1 SW 4 7 2 4 1020.4 1020.4 0.0
21/06:30am 4.1 1.4 3.8 98 0.1 SW 7 7 4 4 1020.2 1020.2 0.0
21/06:00am 3.9 2.5 3.6 98 0.1 CALM 0 0 0 0 1019.8 1019.8 0.0
21/05:30am 4.4 3.1 4.1 98 0.1 CALM 0 0 0 0 1019.5 1019.5 0.0
21/05:00am 4.6 3.3 4.3 98 0.1 CALM 0 0 0 0 1020.1 1020.1 0.0
21/04:30am 4.5 3.2 4.2 98 0.1 CALM 0 0 0 0 1020.1 1020.1 0.0
21/04:00am 4.0 2.6 3.7 98 0.1 CALM 0 0 0 0 1019.9 1019.9 0.0
21/03:30am 4.7 2.3 4.4 98 0.1 NE 6 7 3 4 1019.8 1019.8 0.0
21/03:12am 4.1 2.7 3.8 98 0.1 CALM 0 0 0 0 1020.3 1020.3 0.0
21/03:00am 4.2 2.9 3.9 98 0.1 CALM 0 0 0 0 1020.3 1020.3 0.0
21/02:54am 4.5 3.2 4.2 98 0.1 CALM 0 0 0 0 1020.4 1020.4 0.0
21/02:30am 4.2 2.9 3.9 98 0.1 CALM 0 0 0 0 1020.5 1020.5 0.0
21/02:00am 5.1 2.2 4.8 98 0.1 E 9 11 5 6 1020.4 1020.4 0.0
21/01:30am 4.9 2.9 4.6 98 0.1 ESE 4 7 2 4 1020.8 1020.8 0.0
21/01:20am 4.6 3.0 4.3 98 0.1 ENE 2 7 1 4 1021.0 1021.0 0.0
21/01:00am 5.1 3.9 4.8 98 0.1 CALM 0 0 0 0 1021.2 1021.2 0.0
21/12:36am 5.2 4.1 4.9 98 0.1 CALM 0 0 0 0 1021.6 1021.6 0.0
21/12:30am 5.1 3.9 4.8 98 0.1 CALM 0 0 0 0 1021.6 1021.6 0.0
21/12:00am 5.2 4.1 4.9 98 0.1 CALM 0 0 0 0 1021.7 1021.7 0.0
 
Date/Time
EST
Temp
°C
App
Temp
°C
Dew
Point
°C
Rel
Hum
%
Delta-T
°C
Wind Press
QNH
hPa
Press
MSL
hPa
Rain since
9am
mm
Dir  Spd
km/h
Gust
km/h
Spd
kts
Gust
kts
20/11:30pm 5.1 3.9 4.5 96 0.3 CALM 0 0 0 0 1021.8 1021.8 0.0
20/11:00pm 5.7 4.5 4.7 93 0.4 CALM 0 0 0 0 1021.7 1021.7 0.0
20/10:30pm 5.6 4.4 4.6 93 0.4 CALM 0 0 0 0 1021.8 1021.8 0.0
20/10:00pm 6.6 5.5 5.2 91 0.6 CALM 0 0 0 0 1021.8 1021.8 0.0
20/09:30pm 6.1 4.8 4.1 87 0.9 CALM 0 0 0 0 1022.3 1022.3 0.0
20/09:00pm 6.8 4.5 4.6 86 1.0 W 6 9 3 5 1022.4 1022.4 0.0
20/08:30pm 7.2 5.4 5.3 88 0.8 W 4 13 2 7 1022.5 1022.5 0.0
20/08:00pm 7.9 6.8 5.0 82 1.3 CALM 0 0 0 0 1022.2 1022.2 0.0
20/07:30pm 9.0 8.0 5.6 79 1.5 CALM 0 0 0 0 1021.9 1021.9 0.0
20/07:00pm 10.4 8.1 5.6 72 2.2 ENE 7 9 4 5 1021.6 1021.6 0.0
20/06:30pm 11.6 8.2 5.7 67 2.7 E 13 17 7 9 1021.4 1021.4 0.0
20/06:00pm 12.3 9.9 5.2 62 3.3 E 7 9 4 5 1021.3 1021.3 0.0
20/05:30pm 13.2 10.8 5.4 59 3.6 E 7 9 4 5 1021.3 1021.3 0.0
20/05:00pm 13.8 11.1 5.4 57 3.9 ENE 9 15 5 8 1021.1 1021.1 0.0
20/04:30pm 15.4 12.6 5.3 51 4.8 E 9 11 5 6 1021.0 1021.0 0.0
20/04:00pm 15.5 11.5 4.8 49 5.0 SE 15 20 8 11 1021.0 1021.0 0.0
20/03:30pm 16.4 13.1 4.8 46 5.5 E 11 19 6 10 1021.1 1021.1 0.0
20/03:00pm 16.2 13.7 4.9 47 5.3 SE 7 13 4 7 1021.4 1021.4 0.0
20/02:30pm 15.6 12.1 3.7 45 5.5 SSE 11 20 6 11 1021.6 1021.6 0.0
20/02:00pm 16.7 13.2 3.7 42 6.0 SSE 11 17 6 9 1021.8 1021.8 0.0
20/01:30pm 16.0 13.1 2.8 41 6.0 S 7 17 4 9 1022.1 1022.1 0.0
20/01:00pm 15.9 12.6 2.7 41 5.9 SSW 9 13 5 7 1022.5 1022.5 0.0
20/12:30pm 15.1 11.3 1.6 40 5.9 SSE 11 17 6 9 1022.9 1022.9 0.0
20/12:00pm 15.2 10.4 2.7 43 5.6 SE 17 26 9 14 1023.1 1023.1 0.0
20/11:30am 14.6 10.2 2.5 44 5.4 SSE 15 22 8 12 1023.5 1023.5 0.0
20/11:00am 14.2 9.6 1.5 42 5.5 SSW 15 26 8 14 1024.1 1024.1 0.0
20/10:30am 13.9 8.9 1.2 42 5.4 SSW 17 24 9 13 1024.6 1024.6 0.0
20/10:00am 13.6 8.1 0.9 42 5.4 SW 19 28 10 15 1024.8 1024.8 0.0
20/09:30am 12.5 6.7 0.0 42 5.2 SSW 20 28 11 15 1025.0 1025.0 0.0
20/09:00am 11.7 6.9 0.5 46 4.6 SSW 15 22 8 12 1024.8 1024.8 0.0
20/08:30am 9.5 6.5 1.7 58 3.2 SSW 7 9 4 5 1024.9 1024.9 0.0
20/08:00am 7.6 5.8 1.5 65 2.5 CALM 0 0 0 0 1024.6 1024.6 0.0
20/07:30am 3.8 0.8 0.7 80 1.2 W 6 9 3 5 1024.4 1024.4 0.0
20/07:00am 2.0 -0.1 -1.1 80 1.1 CALM 0 0 0 0 1024.3 1024.3 0.0
20/06:30am 1.2 -1.0 -1.2 84 0.8 CALM 0 0 0 0 1023.9 1023.9 0.0
20/06:00am 2.1 -1.3 -2.0 74 1.4 WSW 6 9 3 5 1023.8 1023.8 0.0
20/05:30am 2.5 0.3 -1.7 74 1.5 CALM 0 6 0 3 1023.7 1023.7 0.0
20/05:00am 2.7 -0.6 -1.6 73 1.5 SW 6 7 3 4 1023.3 1023.3 0.0
20/04:30am 3.5 -0.4 -1.8 68 1.9 SW 9 9 5 5 1023.1 1023.1 0.0
20/04:00am 3.9 0.0 -1.3 69 1.9 SW 9 11 5 6 1022.8 1022.8 0.0
20/03:30am 3.5 -0.2 -0.3 76 1.4 SW 9 11 5 6 1022.6 1022.6 0.0
20/03:00am 2.2 -1.8 0.3 87 0.7 SW 11 13 6 7 1022.5 1022.5 0.0
20/02:30am 2.2 -1.4 0.4 88 0.7 SW 9 11 5 6 1022.7 1022.7 0.0
20/02:00am 2.5 -0.6 0.1 84 0.9 SSW 6 7 3 4 1022.8 1022.8 0.0
20/01:30am 3.1 0.0 0.0 80 1.2 SW 6 7 3 4 1022.7 1022.7 0.0
20/01:00am 5.8 2.3 1.0 71 1.9 SW 9 11 5 6 1022.7 1022.7 0.0
20/12:30am 4.1 1.1 0.8 79 1.3 WSW 6 7 3 4 1022.7 1022.7 0.0
20/12:00am 4.5 0.9 0.6 76 1.5 W 9 9 5 5 1022.6 1022.6 0.0
 
Date/Time
EST
Temp
°C
App
Temp
°C
Dew
Point
°C
Rel
Hum
%
Delta-T
°C
Wind Press
QNH
hPa
Press
MSL
hPa
Rain since
9am
mm
Dir  Spd
km/h
Gust
km/h
Spd
kts
Gust
kts
19/11:30pm 5.0 1.8 0.8 74 1.6 WSW 7 9 4 5 1022.6 1022.6 0.0
19/11:00pm 6.4 2.9 1.5 71 2.0 SW 9 11 5 6 1022.6 1022.6 0.0
19/10:30pm 8.0 4.8 2.9 70 2.2 SW 9 11 5 6 1022.5 1022.5 0.0
19/10:00pm 8.8 5.5 2.6 65 2.6 SW 9 13 5 7 1022.4 1022.4 0.0
19/09:30pm 9.1 5.5 2.7 64 2.7 SW 11 15 6 8 1022.4 1022.4 0.0
19/09:00pm 9.4 6.1 2.7 63 2.8 SW 9 13 5 7 1022.4 1022.4 0.0
19/08:30pm 10.0 6.7 2.6 60 3.2 SSW 9 13 5 7 1022.0 1022.0 0.0
19/08:00pm 10.7 7.5 2.8 58 3.4 SSW 9 13 5 7 1021.5 1021.5 0.0
19/07:30pm 11.8 7.5 3.1 55 3.8 S 15 22 8 12 1021.2 1021.2 0.0
19/07:00pm 12.9 8.1 2.5 49 4.5 SE 17 22 9 12 1020.7 1020.7 0.0
19/06:30pm 12.0 8.7 0.1 44 4.9 S 7 11 4 6 1020.3 1020.3 0.0
19/06:00pm 12.6 8.5 -0.3 41 5.3 WSW 11 15 6 8 1019.7 1019.7 0.0
19/05:30pm 13.9 8.6 -0.5 37 6.0 SW 17 24 9 13 1019.3 1019.3 0.0
19/05:00pm 15.2 9.6 -0.1 35 6.4 SW 19 26 10 14 1018.8 1018.8 0.0
19/04:30pm 15.0 9.7 -0.3 35 6.4 SW 17 24 9 13 1018.4 1018.4 0.0
19/04:00pm 15.1 8.8 -1.0 33 6.6 SSW 22 33 12 18 1018.2 1018.2 0.0
19/03:30pm 16.1 10.2 -0.6 32 7.0 SSW 20 30 11 16 1018.0 1018.0 0.0
19/03:00pm 15.7 9.0 -0.9 32 6.9 SW 24 33 13 18 1017.8 1017.8 0.0
19/02:30pm 15.0 7.9 -1.5 32 6.7 SSW 26 41 14 22 1017.7 1017.7 0.0
19/02:00pm 15.2 7.4 -0.9 33 6.7 SW 30 44 16 24 1017.6 1017.6 0.0
19/01:38pm 16.2 9.2 -0.5 32 7.1 SSW 26 48 14 26 1017.5 1017.5 0.0

Latest Capital City Observations: Canberra | Sydney | Melbourne | Brisbane | Adelaide | Perth | Hobart | Darwin

Other Formats:

Comma delimited format used in spreadsheet applications
http://www.bom.gov.au/fwo/IDN60901/IDN60901.95753.axf

JavaScript Object Notation format (JSON) in row-major order
http://www.bom.gov.au/fwo/IDN60901/IDN60901.95753.json